sensor_id;sensor_type;location;lat;lon;timestamp;temperature;humidity
11385;DHT22;5747;56.748;13.882;2024-01-16T00:02:19;-14.90;99.90
11385;DHT22;5747;56.748;13.882;2024-01-16T00:04:47;-14.70;99.90
11385;DHT22;5747;56.748;13.882;2024-01-16T00:07:15;-14.60;99.90
11385;DHT22;5747;56.748;13.882;2024-01-16T00:09:45;-14.60;99.90
11385;DHT22;5747;56.748;13.882;2024-01-16T00:12:13;-14.60;99.90
11385;DHT22;5747;56.748;13.882;2024-01-16T00:14:42;-14.50;99.90
11385;DHT22;5747;56.748;13.882;2024-01-16T00:17:10;-14.80;99.90
11385;DHT22;5747;56.748;13.882;2024-01-16T00:19:38;-15.00;99.90
11385;DHT22;5747;56.748;13.882;2024-01-16T00:22:07;-15.10;99.90
11385;DHT22;5747;56.748;13.882;2024-01-16T00:24:35;-15.30;99.90
11385;DHT22;5747;56.748;13.882;2024-01-16T00:27:05;-15.30;99.90
11385;DHT22;5747;56.748;13.882;2024-01-16T00:29:37;-15.40;99.90
11385;DHT22;5747;56.748;13.882;2024-01-16T00:32:06;-15.50;99.90
11385;DHT22;5747;56.748;13.882;2024-01-16T00:34:34;-15.60;99.90
11385;DHT22;5747;56.748;13.882;2024-01-16T00:37:02;-15.60;99.90
11385;DHT22;5747;56.748;13.882;2024-01-16T00:39:31;-15.40;99.90
11385;DHT22;5747;56.748;13.882;2024-01-16T00:42:01;-15.30;99.90
11385;DHT22;5747;56.748;13.882;2024-01-16T00:44:31;-15.30;99.90
11385;DHT22;5747;56.748;13.882;2024-01-16T00:46:59;-15.40;99.90
11385;DHT22;5747;56.748;13.882;2024-01-16T00:49:28;-15.30;99.90
11385;DHT22;5747;56.748;13.882;2024-01-16T00:51:57;-15.20;99.90
11385;DHT22;5747;56.748;13.882;2024-01-16T00:54:25;-15.20;99.90
11385;DHT22;5747;56.748;13.882;2024-01-16T00:56:53;-15.20;99.90
11385;DHT22;5747;56.748;13.882;2024-01-16T00:59:26;-15.30;99.90
11385;DHT22;5747;56.748;13.882;2024-01-16T01:01:55;-15.20;99.90
11385;DHT22;5747;56.748;13.882;2024-01-16T01:04:23;-15.20;99.90
11385;DHT22;5747;56.748;13.882;2024-01-16T01:06:52;-15.60;99.90
11385;DHT22;5747;56.748;13.882;2024-01-16T01:09:20;-15.60;99.90
11385;DHT22;5747;56.748;13.882;2024-01-16T01:11:49;-15.50;99.90
11385;DHT22;5747;56.748;13.882;2024-01-16T01:14:17;-15.40;99.90
11385;DHT22;5747;56.748;13.882;2024-01-16T01:16:45;-15.40;99.90
11385;DHT22;5747;56.748;13.882;2024-01-16T01:19:15;-15.40;99.90
11385;DHT22;5747;56.748;13.882;2024-01-16T01:21:43;-15.40;99.90
11385;DHT22;5747;56.748;13.882;2024-01-16T01:24:11;-15.50;99.90
11385;DHT22;5747;56.748;13.882;2024-01-16T01:26:39;-15.60;99.90
11385;DHT22;5747;56.748;13.882;2024-01-16T01:29:10;-15.90;99.90
11385;DHT22;5747;56.748;13.882;2024-01-16T01:31:37;-16.30;99.90
11385;DHT22;5747;56.748;13.882;2024-01-16T01:34:05;-16.30;99.90
11385;DHT22;5747;56.748;13.882;2024-01-16T01:36:35;-16.40;99.90
11385;DHT22;5747;56.748;13.882;2024-01-16T01:39:03;-16.40;99.90
11385;DHT22;5747;56.748;13.882;2024-01-16T01:41:32;-16.50;99.90
11385;DHT22;5747;56.748;13.882;2024-01-16T01:44:00;-16.60;99.90
11385;DHT22;5747;56.748;13.882;2024-01-16T01:46:29;-16.60;99.90
11385;DHT22;5747;56.748;13.882;2024-01-16T01:48:59;-16.30;99.90
11385;DHT22;5747;56.748;13.882;2024-01-16T01:51:28;-16.30;99.90
11385;DHT22;5747;56.748;13.882;2024-01-16T01:53:58;-16.50;99.90
11385;DHT22;5747;56.748;13.882;2024-01-16T01:56:28;-16.60;99.90
11385;DHT22;5747;56.748;13.882;2024-01-16T01:58:57;-16.60;99.90
11385;DHT22;5747;56.748;13.882;2024-01-16T02:01:28;-16.50;99.90
11385;DHT22;5747;56.748;13.882;2024-01-16T02:03:57;-16.40;99.90
11385;DHT22;5747;56.748;13.882;2024-01-16T02:06:27;-16.50;99.90
11385;DHT22;5747;56.748;13.882;2024-01-16T02:08:55;-16.60;99.90
11385;DHT22;5747;56.748;13.882;2024-01-16T02:11:24;-16.50;99.90
11385;DHT22;5747;56.748;13.882;2024-01-16T02:13:53;-16.60;99.90
11385;DHT22;5747;56.748;13.882;2024-01-16T02:16:23;-16.60;99.90
11385;DHT22;5747;56.748;13.882;2024-01-16T02:18:52;-16.70;99.90
11385;DHT22;5747;56.748;13.882;2024-01-16T02:21:22;-16.80;99.90
11385;DHT22;5747;56.748;13.882;2024-01-16T02:23:51;-16.90;99.90
11385;DHT22;5747;56.748;13.882;2024-01-16T02:26:20;-16.90;99.90
11385;DHT22;5747;56.748;13.882;2024-01-16T02:28:49;-17.20;99.90
11385;DHT22;5747;56.748;13.882;2024-01-16T02:31:17;-17.20;99.90
11385;DHT22;5747;56.748;13.882;2024-01-16T02:33:45;-17.30;99.90
11385;DHT22;5747;56.748;13.882;2024-01-16T02:36:14;-17.40;99.90
11385;DHT22;5747;56.748;13.882;2024-01-16T02:38:42;-17.40;99.90
11385;DHT22;5747;56.748;13.882;2024-01-16T02:41:15;-17.50;99.90
11385;DHT22;5747;56.748;13.882;2024-01-16T02:43:44;-17.60;99.90
11385;DHT22;5747;56.748;13.882;2024-01-16T02:46:12;-17.70;99.90
11385;DHT22;5747;56.748;13.882;2024-01-16T02:48:41;-17.70;99.90
11385;DHT22;5747;56.748;13.882;2024-01-16T02:51:09;-17.70;99.90
11385;DHT22;5747;56.748;13.882;2024-01-16T02:53:37;-17.70;99.90
11385;DHT22;5747;56.748;13.882;2024-01-16T02:56:06;-17.70;99.90
11385;DHT22;5747;56.748;13.882;2024-01-16T02:58:37;-17.70;99.90
11385;DHT22;5747;56.748;13.882;2024-01-16T03:01:05;-17.70;99.90
11385;DHT22;5747;56.748;13.882;2024-01-16T03:03:34;-17.70;99.90
11385;DHT22;5747;56.748;13.882;2024-01-16T03:06:03;-17.80;99.90
11385;DHT22;5747;56.748;13.882;2024-01-16T03:08:31;-17.80;99.90
11385;DHT22;5747;56.748;13.882;2024-01-16T03:11:00;-17.90;99.90
11385;DHT22;5747;56.748;13.882;2024-01-16T03:13:28;-18.10;99.90
11385;DHT22;5747;56.748;13.882;2024-01-16T03:15:57;-18.10;99.90
11385;DHT22;5747;56.748;13.882;2024-01-16T03:18:25;-17.90;99.90
11385;DHT22;5747;56.748;13.882;2024-01-16T03:20:54;-17.80;99.90
11385;DHT22;5747;56.748;13.882;2024-01-16T03:23:22;-17.80;99.90
11385;DHT22;5747;56.748;13.882;2024-01-16T03:25:50;-17.90;99.90
11385;DHT22;5747;56.748;13.882;2024-01-16T03:28:19;-17.90;99.90
11385;DHT22;5747;56.748;13.882;2024-01-16T03:30:47;-17.80;99.90
11385;DHT22;5747;56.748;13.882;2024-01-16T03:33:17;-17.80;99.90
11385;DHT22;5747;56.748;13.882;2024-01-16T03:35:45;-17.80;99.90
11385;DHT22;5747;56.748;13.882;2024-01-16T03:38:14;-17.90;99.90
11385;DHT22;5747;56.748;13.882;2024-01-16T03:40:42;-18.00;99.90
11385;DHT22;5747;56.748;13.882;2024-01-16T03:43:11;-18.00;99.90
11385;DHT22;5747;56.748;13.882;2024-01-16T03:45:39;-17.90;99.90
11385;DHT22;5747;56.748;13.882;2024-01-16T03:48:07;-17.90;99.90
11385;DHT22;5747;56.748;13.882;2024-01-16T03:50:37;-18.10;99.90
11385;DHT22;5747;56.748;13.882;2024-01-16T03:53:05;-18.40;99.90
11385;DHT22;5747;56.748;13.882;2024-01-16T03:55:33;-18.30;99.90
11385;DHT22;5747;56.748;13.882;2024-01-16T03:58:01;-18.10;99.90
11385;DHT22;5747;56.748;13.882;2024-01-16T04:00:29;-18.10;99.90
11385;DHT22;5747;56.748;13.882;2024-01-16T04:02:57;-18.20;99.90
11385;DHT22;5747;56.748;13.882;2024-01-16T04:05:26;-18.30;99.90
11385;DHT22;5747;56.748;13.882;2024-01-16T04:07:56;-18.40;99.90
11385;DHT22;5747;56.748;13.882;2024-01-16T04:10:24;-18.50;99.90
11385;DHT22;5747;56.748;13.882;2024-01-16T04:12:52;-18.60;99.90
11385;DHT22;5747;56.748;13.882;2024-01-16T04:15:21;-18.40;99.90
11385;DHT22;5747;56.748;13.882;2024-01-16T04:17:49;-18.40;99.90
11385;DHT22;5747;56.748;13.882;2024-01-16T04:20:17;-18.50;99.90
11385;DHT22;5747;56.748;13.882;2024-01-16T04:22:46;-18.60;99.90
11385;DHT22;5747;56.748;13.882;2024-01-16T04:25:15;-18.70;99.90
11385;DHT22;5747;56.748;13.882;2024-01-16T04:27:44;-18.70;99.90
11385;DHT22;5747;56.748;13.882;2024-01-16T04:30:13;-18.70;99.90
11385;DHT22;5747;56.748;13.882;2024-01-16T04:32:41;-18.60;99.90
11385;DHT22;5747;56.748;13.882;2024-01-16T04:35:10;-18.40;99.90
11385;DHT22;5747;56.748;13.882;2024-01-16T04:37:38;-18.40;99.90
11385;DHT22;5747;56.748;13.882;2024-01-16T04:40:07;-18.30;99.90
11385;DHT22;5747;56.748;13.882;2024-01-16T04:42:36;-18.30;99.90
11385;DHT22;5747;56.748;13.882;2024-01-16T04:45:05;-18.20;99.90
11385;DHT22;5747;56.748;13.882;2024-01-16T04:47:33;-18.20;99.90
11385;DHT22;5747;56.748;13.882;2024-01-16T04:50:02;-18.30;99.90
11385;DHT22;5747;56.748;13.882;2024-01-16T04:52:30;-18.40;99.90
11385;DHT22;5747;56.748;13.882;2024-01-16T04:54:58;-18.40;99.90
11385;DHT22;5747;56.748;13.882;2024-01-16T04:57:27;-18.30;99.90
11385;DHT22;5747;56.748;13.882;2024-01-16T04:59:57;-18.30;99.90
11385;DHT22;5747;56.748;13.882;2024-01-16T05:02:25;-18.40;99.90
11385;DHT22;5747;56.748;13.882;2024-01-16T05:04:53;-18.70;99.90
11385;DHT22;5747;56.748;13.882;2024-01-16T05:07:23;-18.80;99.90
11385;DHT22;5747;56.748;13.882;2024-01-16T05:09:51;-18.90;99.90
11385;DHT22;5747;56.748;13.882;2024-01-16T05:12:20;-19.00;99.90
11385;DHT22;5747;56.748;13.882;2024-01-16T05:14:49;-19.00;99.90
11385;DHT22;5747;56.748;13.882;2024-01-16T05:17:19;-19.00;99.90
11385;DHT22;5747;56.748;13.882;2024-01-16T05:19:47;-19.10;99.90
11385;DHT22;5747;56.748;13.882;2024-01-16T05:22:15;-18.80;99.90
11385;DHT22;5747;56.748;13.882;2024-01-16T05:24:43;-18.80;99.90
11385;DHT22;5747;56.748;13.882;2024-01-16T05:27:11;-18.80;99.90
11385;DHT22;5747;56.748;13.882;2024-01-16T05:29:40;-18.90;99.90
11385;DHT22;5747;56.748;13.882;2024-01-16T05:32:11;-18.90;99.90
11385;DHT22;5747;56.748;13.882;2024-01-16T05:34:40;-18.80;99.90
11385;DHT22;5747;56.748;13.882;2024-01-16T05:37:08;-18.90;99.90
11385;DHT22;5747;56.748;13.882;2024-01-16T05:39:36;-19.10;99.90
11385;DHT22;5747;56.748;13.882;2024-01-16T05:42:05;-19.20;99.90
11385;DHT22;5747;56.748;13.882;2024-01-16T05:44:33;-19.20;99.90
11385;DHT22;5747;56.748;13.882;2024-01-16T05:47:01;-19.40;99.90
11385;DHT22;5747;56.748;13.882;2024-01-16T05:49:30;-19.40;99.90
11385;DHT22;5747;56.748;13.882;2024-01-16T05:51:59;-19.20;99.90
11385;DHT22;5747;56.748;13.882;2024-01-16T05:54:27;-19.10;99.90
11385;DHT22;5747;56.748;13.882;2024-01-16T05:56:56;-19.00;99.90
11385;DHT22;5747;56.748;13.882;2024-01-16T05:59:24;-18.90;99.90
11385;DHT22;5747;56.748;13.882;2024-01-16T06:01:52;-18.90;99.90
11385;DHT22;5747;56.748;13.882;2024-01-16T06:04:20;-19.00;99.90
11385;DHT22;5747;56.748;13.882;2024-01-16T06:06:48;-19.00;99.90
11385;DHT22;5747;56.748;13.882;2024-01-16T06:09:18;-19.00;99.90
11385;DHT22;5747;56.748;13.882;2024-01-16T06:11:46;-19.00;99.90
11385;DHT22;5747;56.748;13.882;2024-01-16T06:14:15;-18.90;99.90
11385;DHT22;5747;56.748;13.882;2024-01-16T06:16:48;-19.00;99.90
11385;DHT22;5747;56.748;13.882;2024-01-16T06:19:17;-19.00;99.90
11385;DHT22;5747;56.748;13.882;2024-01-16T06:21:46;-19.10;99.90
11385;DHT22;5747;56.748;13.882;2024-01-16T06:24:14;-19.10;99.90
11385;DHT22;5747;56.748;13.882;2024-01-16T06:26:43;-19.00;99.90
11385;DHT22;5747;56.748;13.882;2024-01-16T06:29:11;-19.10;99.90
11385;DHT22;5747;56.748;13.882;2024-01-16T06:31:54;-19.10;99.90
11385;DHT22;5747;56.748;13.882;2024-01-16T06:34:22;-19.20;99.90
11385;DHT22;5747;56.748;13.882;2024-01-16T06:36:51;-19.40;99.90
11385;DHT22;5747;56.748;13.882;2024-01-16T06:39:19;-19.70;99.90
11385;DHT22;5747;56.748;13.882;2024-01-16T06:41:48;-20.00;99.90
11385;DHT22;5747;56.748;13.882;2024-01-16T06:44:17;-20.00;99.90
11385;DHT22;5747;56.748;13.882;2024-01-16T06:46:46;-20.00;99.90
11385;DHT22;5747;56.748;13.882;2024-01-16T06:49:14;-20.10;99.90
11385;DHT22;5747;56.748;13.882;2024-01-16T06:51:42;-20.20;99.90
11385;DHT22;5747;56.748;13.882;2024-01-16T06:54:10;-20.20;99.90
11385;DHT22;5747;56.748;13.882;2024-01-16T06:56:38;-20.30;99.90
11385;DHT22;5747;56.748;13.882;2024-01-16T06:59:08;-20.20;99.90
11385;DHT22;5747;56.748;13.882;2024-01-16T07:01:38;-20.10;99.90
11385;DHT22;5747;56.748;13.882;2024-01-16T07:04:06;-19.90;99.90
11385;DHT22;5747;56.748;13.882;2024-01-16T07:06:34;-19.90;99.90
11385;DHT22;5747;56.748;13.882;2024-01-16T07:09:03;-19.70;99.90
11385;DHT22;5747;56.748;13.882;2024-01-16T07:11:32;-19.60;99.90
11385;DHT22;5747;56.748;13.882;2024-01-16T07:14:00;-19.50;99.90
11385;DHT22;5747;56.748;13.882;2024-01-16T07:16:30;-19.60;99.90
11385;DHT22;5747;56.748;13.882;2024-01-16T07:18:59;-19.50;99.90
11385;DHT22;5747;56.748;13.882;2024-01-16T07:21:27;-19.50;99.90
11385;DHT22;5747;56.748;13.882;2024-01-16T07:23:55;-19.50;99.90
11385;DHT22;5747;56.748;13.882;2024-01-16T07:26:24;-19.80;99.90
11385;DHT22;5747;56.748;13.882;2024-01-16T07:28:52;-20.00;99.90
11385;DHT22;5747;56.748;13.882;2024-01-16T07:31:20;-20.20;99.90
11385;DHT22;5747;56.748;13.882;2024-01-16T07:33:50;-20.30;99.90
11385;DHT22;5747;56.748;13.882;2024-01-16T07:36:18;-20.20;99.90
11385;DHT22;5747;56.748;13.882;2024-01-16T07:38:46;-20.00;99.90
11385;DHT22;5747;56.748;13.882;2024-01-16T07:41:15;-20.00;99.90
11385;DHT22;5747;56.748;13.882;2024-01-16T07:43:43;-20.10;99.90
11385;DHT22;5747;56.748;13.882;2024-01-16T07:46:15;-20.20;99.90
11385;DHT22;5747;56.748;13.882;2024-01-16T07:48:44;-20.20;99.90
11385;DHT22;5747;56.748;13.882;2024-01-16T07:51:14;-20.10;99.90
11385;DHT22;5747;56.748;13.882;2024-01-16T07:53:42;-19.90;99.90
11385;DHT22;5747;56.748;13.882;2024-01-16T07:56:10;-19.90;99.90
11385;DHT22;5747;56.748;13.882;2024-01-16T07:58:39;-19.80;99.90
11385;DHT22;5747;56.748;13.882;2024-01-16T08:01:07;-19.80;99.90
11385;DHT22;5747;56.748;13.882;2024-01-16T08:03:35;-19.90;99.90
11385;DHT22;5747;56.748;13.882;2024-01-16T08:06:06;-20.30;99.90
11385;DHT22;5747;56.748;13.882;2024-01-16T08:08:35;-20.30;99.90
11385;DHT22;5747;56.748;13.882;2024-01-16T08:11:03;-20.00;99.90
11385;DHT22;5747;56.748;13.882;2024-01-16T08:13:31;-19.80;99.90
11385;DHT22;5747;56.748;13.882;2024-01-16T08:16:00;-19.80;99.90
11385;DHT22;5747;56.748;13.882;2024-01-16T08:18:28;-19.70;99.90
11385;DHT22;5747;56.748;13.882;2024-01-16T08:20:57;-19.70;99.90
11385;DHT22;5747;56.748;13.882;2024-01-16T08:23:25;-19.60;99.90
11385;DHT22;5747;56.748;13.882;2024-01-16T08:25:54;-19.60;99.90
11385;DHT22;5747;56.748;13.882;2024-01-16T08:28:22;-19.60;99.90
11385;DHT22;5747;56.748;13.882;2024-01-16T08:30:51;-19.60;99.90
11385;DHT22;5747;56.748;13.882;2024-01-16T08:33:20;-19.50;99.90
11385;DHT22;5747;56.748;13.882;2024-01-16T08:36:03;-19.40;99.90
11385;DHT22;5747;56.748;13.882;2024-01-16T08:38:31;-19.40;99.90
11385;DHT22;5747;56.748;13.882;2024-01-16T08:41:01;-19.40;99.90
11385;DHT22;5747;56.748;13.882;2024-01-16T08:43:30;-19.30;99.90
11385;DHT22;5747;56.748;13.882;2024-01-16T08:45:58;-19.20;99.90
11385;DHT22;5747;56.748;13.882;2024-01-16T08:48:26;-19.20;99.90
11385;DHT22;5747;56.748;13.882;2024-01-16T08:50:54;-19.20;99.90
11385;DHT22;5747;56.748;13.882;2024-01-16T08:53:23;-19.20;99.90
11385;DHT22;5747;56.748;13.882;2024-01-16T08:55:51;-19.20;99.90
11385;DHT22;5747;56.748;13.882;2024-01-16T08:58:20;-19.10;99.90
11385;DHT22;5747;56.748;13.882;2024-01-16T09:00:48;-19.10;99.90
11385;DHT22;5747;56.748;13.882;2024-01-16T09:03:17;-19.10;99.90
11385;DHT22;5747;56.748;13.882;2024-01-16T09:05:45;-18.90;99.90
11385;DHT22;5747;56.748;13.882;2024-01-16T09:08:13;-18.60;99.90
11385;DHT22;5747;56.748;13.882;2024-01-16T09:10:42;-18.50;99.90
11385;DHT22;5747;56.748;13.882;2024-01-16T09:13:10;-18.40;99.90
11385;DHT22;5747;56.748;13.882;2024-01-16T09:15:40;-18.30;99.90
11385;DHT22;5747;56.748;13.882;2024-01-16T09:18:08;-18.30;99.90
11385;DHT22;5747;56.748;13.882;2024-01-16T09:20:36;-18.30;99.90
11385;DHT22;5747;56.748;13.882;2024-01-16T09:23:04;-18.20;99.90
11385;DHT22;5747;56.748;13.882;2024-01-16T09:25:34;-17.90;99.90
11385;DHT22;5747;56.748;13.882;2024-01-16T09:28:02;-17.80;99.90
11385;DHT22;5747;56.748;13.882;2024-01-16T09:30:30;-17.80;99.90
11385;DHT22;5747;56.748;13.882;2024-01-16T09:33:02;-17.80;99.90
11385;DHT22;5747;56.748;13.882;2024-01-16T09:35:31;-17.80;99.90
11385;DHT22;5747;56.748;13.882;2024-01-16T09:37:59;-17.70;99.90
11385;DHT22;5747;56.748;13.882;2024-01-16T09:40:27;-17.60;99.90
11385;DHT22;5747;56.748;13.882;2024-01-16T09:42:56;-17.50;99.90
11385;DHT22;5747;56.748;13.882;2024-01-16T09:45:25;-17.30;99.90
11385;DHT22;5747;56.748;13.882;2024-01-16T09:47:54;-17.30;99.90
11385;DHT22;5747;56.748;13.882;2024-01-16T09:50:24;-17.20;99.90
11385;DHT22;5747;56.748;13.882;2024-01-16T09:52:52;-17.20;99.90
11385;DHT22;5747;56.748;13.882;2024-01-16T09:55:25;-17.20;99.90
11385;DHT22;5747;56.748;13.882;2024-01-16T09:57:53;-17.00;99.90
11385;DHT22;5747;56.748;13.882;2024-01-16T10:00:24;-16.90;99.90
11385;DHT22;5747;56.748;13.882;2024-01-16T10:02:53;-16.80;99.90
11385;DHT22;5747;56.748;13.882;2024-01-16T10:05:27;-16.70;99.90
11385;DHT22;5747;56.748;13.882;2024-01-16T10:07:58;-16.60;99.90
11385;DHT22;5747;56.748;13.882;2024-01-16T10:10:26;-16.40;99.90
11385;DHT22;5747;56.748;13.882;2024-01-16T10:13:13;-16.00;99.90
11385;DHT22;5747;56.748;13.882;2024-01-16T10:15:42;-16.10;99.90
11385;DHT22;5747;56.748;13.882;2024-01-16T10:18:21;-16.00;99.90
11385;DHT22;5747;56.748;13.882;2024-01-16T10:20:52;-16.00;99.90
11385;DHT22;5747;56.748;13.882;2024-01-16T10:23:24;-15.90;99.90
11385;DHT22;5747;56.748;13.882;2024-01-16T10:26:10;-15.80;99.90
11385;DHT22;5747;56.748;13.882;2024-01-16T10:28:40;-15.70;99.90
11385;DHT22;5747;56.748;13.882;2024-01-16T10:31:10;-15.60;99.90
11385;DHT22;5747;56.748;13.882;2024-01-16T10:33:39;-15.40;99.90
11385;DHT22;5747;56.748;13.882;2024-01-16T10:36:13;-15.30;99.90
11385;DHT22;5747;56.748;13.882;2024-01-16T10:38:44;-15.10;99.90
11385;DHT22;5747;56.748;13.882;2024-01-16T10:41:14;-14.60;99.90
11385;DHT22;5747;56.748;13.882;2024-01-16T10:43:42;-14.30;99.90
11385;DHT22;5747;56.748;13.882;2024-01-16T10:46:12;-14.40;99.90
11385;DHT22;5747;56.748;13.882;2024-01-16T10:48:42;-14.40;99.90
11385;DHT22;5747;56.748;13.882;2024-01-16T10:51:14;-14.30;99.90
11385;DHT22;5747;56.748;13.882;2024-01-16T10:53:44;-14.00;99.90
11385;DHT22;5747;56.748;13.882;2024-01-16T10:56:13;-14.00;99.90
11385;DHT22;5747;56.748;13.882;2024-01-16T10:58:43;-14.00;99.90
11385;DHT22;5747;56.748;13.882;2024-01-16T11:01:15;-14.00;99.90
11385;DHT22;5747;56.748;13.882;2024-01-16T11:03:47;-13.90;99.90
11385;DHT22;5747;56.748;13.882;2024-01-16T11:06:17;-13.80;99.90
11385;DHT22;5747;56.748;13.882;2024-01-16T11:08:46;-13.80;99.90
11385;DHT22;5747;56.748;13.882;2024-01-16T11:11:16;-13.70;99.90
11385;DHT22;5747;56.748;13.882;2024-01-16T11:13:46;-13.80;99.90
11385;DHT22;5747;56.748;13.882;2024-01-16T11:16:14;-13.70;99.90
11385;DHT22;5747;56.748;13.882;2024-01-16T11:18:42;-13.60;99.90
11385;DHT22;5747;56.748;13.882;2024-01-16T11:21:12;-13.50;99.90
11385;DHT22;5747;56.748;13.882;2024-01-16T11:23:46;-13.40;99.90
11385;DHT22;5747;56.748;13.882;2024-01-16T11:26:28;-13.20;99.90
11385;DHT22;5747;56.748;13.882;2024-01-16T11:29:00;-13.10;99.90
11385;DHT22;5747;56.748;13.882;2024-01-16T11:31:30;-13.00;99.90
11385;DHT22;5747;56.748;13.882;2024-01-16T11:33:59;-12.90;99.90
11385;DHT22;5747;56.748;13.882;2024-01-16T11:36:49;-12.80;99.90
11385;DHT22;5747;56.748;13.882;2024-01-16T11:39:25;-12.80;99.90
11385;DHT22;5747;56.748;13.882;2024-01-16T11:41:54;-12.70;99.90
11385;DHT22;5747;56.748;13.882;2024-01-16T11:44:43;-12.70;99.90
11385;DHT22;5747;56.748;13.882;2024-01-16T11:47:18;-12.60;99.90
11385;DHT22;5747;56.748;13.882;2024-01-16T11:49:47;-12.50;99.90
11385;DHT22;5747;56.748;13.882;2024-01-16T11:52:39;-12.50;99.90
11385;DHT22;5747;56.748;13.882;2024-01-16T11:55:26;-12.40;99.90
11385;DHT22;5747;56.748;13.882;2024-01-16T11:58:07;-12.40;99.90
11385;DHT22;5747;56.748;13.882;2024-01-16T12:00:40;-12.30;99.90
11385;DHT22;5747;56.748;13.882;2024-01-16T12:03:09;-12.30;99.90
11385;DHT22;5747;56.748;13.882;2024-01-16T12:05:42;-12.20;99.90
11385;DHT22;5747;56.748;13.882;2024-01-16T12:08:10;-12.10;99.90
11385;DHT22;5747;56.748;13.882;2024-01-16T12:10:47;-12.00;99.90
11385;DHT22;5747;56.748;13.882;2024-01-16T12:13:16;-11.90;99.90
11385;DHT22;5747;56.748;13.882;2024-01-16T12:15:44;-11.70;99.90
11385;DHT22;5747;56.748;13.882;2024-01-16T12:18:18;-11.60;99.90
11385;DHT22;5747;56.748;13.882;2024-01-16T12:21:08;-11.60;99.90
11385;DHT22;5747;56.748;13.882;2024-01-16T12:23:37;-11.70;99.90
11385;DHT22;5747;56.748;13.882;2024-01-16T12:26:21;-11.60;99.90
11385;DHT22;5747;56.748;13.882;2024-01-16T12:28:51;-11.50;99.90
11385;DHT22;5747;56.748;13.882;2024-01-16T12:31:25;-11.50;99.90
11385;DHT22;5747;56.748;13.882;2024-01-16T12:33:55;-11.40;99.90
11385;DHT22;5747;56.748;13.882;2024-01-16T12:36:32;-11.30;99.90
11385;DHT22;5747;56.748;13.882;2024-01-16T12:39:00;-11.20;99.90
11385;DHT22;5747;56.748;13.882;2024-01-16T12:41:32;-11.20;99.90
11385;DHT22;5747;56.748;13.882;2024-01-16T12:44:08;-10.90;99.90
11385;DHT22;5747;56.748;13.882;2024-01-16T12:46:43;-10.90;99.90
11385;DHT22;5747;56.748;13.882;2024-01-16T12:49:12;-10.90;99.90
11385;DHT22;5747;56.748;13.882;2024-01-16T12:51:41;-10.80;99.90
11385;DHT22;5747;56.748;13.882;2024-01-16T12:54:13;-10.70;99.90
11385;DHT22;5747;56.748;13.882;2024-01-16T12:56:43;-10.70;99.90
11385;DHT22;5747;56.748;13.882;2024-01-16T12:59:12;-10.60;99.90
11385;DHT22;5747;56.748;13.882;2024-01-16T13:01:42;-10.50;99.90
11385;DHT22;5747;56.748;13.882;2024-01-16T13:04:11;-10.10;99.90
11385;DHT22;5747;56.748;13.882;2024-01-16T13:06:42;-9.90;99.90
11385;DHT22;5747;56.748;13.882;2024-01-16T13:09:11;-9.60;99.90
11385;DHT22;5747;56.748;13.882;2024-01-16T13:11:52;-9.50;99.90
11385;DHT22;5747;56.748;13.882;2024-01-16T13:14:22;-9.30;99.90
11385;DHT22;5747;56.748;13.882;2024-01-16T13:16:53;-9.20;99.90
11385;DHT22;5747;56.748;13.882;2024-01-16T13:19:23;-9.20;99.90
11385;DHT22;5747;56.748;13.882;2024-01-16T13:21:52;-9.10;99.90
11385;DHT22;5747;56.748;13.882;2024-01-16T13:24:20;-9.10;99.90
11385;DHT22;5747;56.748;13.882;2024-01-16T13:26:52;-8.90;99.90
11385;DHT22;5747;56.748;13.882;2024-01-16T13:29:20;-8.80;99.90
11385;DHT22;5747;56.748;13.882;2024-01-16T13:31:49;-8.80;99.90
11385;DHT22;5747;56.748;13.882;2024-01-16T13:34:22;-8.90;99.90
11385;DHT22;5747;56.748;13.882;2024-01-16T13:36:54;-9.00;99.90
11385;DHT22;5747;56.748;13.882;2024-01-16T13:39:42;-9.00;99.90
11385;DHT22;5747;56.748;13.882;2024-01-16T13:42:12;-9.00;99.90
11385;DHT22;5747;56.748;13.882;2024-01-16T13:44:40;-9.10;99.90
11385;DHT22;5747;56.748;13.882;2024-01-16T13:47:08;-9.20;99.90
11385;DHT22;5747;56.748;13.882;2024-01-16T13:49:41;-9.30;99.90
11385;DHT22;5747;56.748;13.882;2024-01-16T13:52:10;-9.30;99.90
11385;DHT22;5747;56.748;13.882;2024-01-16T13:54:38;-9.40;99.90
11385;DHT22;5747;56.748;13.882;2024-01-16T13:57:07;-9.60;99.90
11385;DHT22;5747;56.748;13.882;2024-01-16T13:59:40;-9.60;99.90
11385;DHT22;5747;56.748;13.882;2024-01-16T14:02:08;-9.70;99.90
11385;DHT22;5747;56.748;13.882;2024-01-16T14:04:37;-10.00;99.90
11385;DHT22;5747;56.748;13.882;2024-01-16T14:07:05;-10.30;99.90
11385;DHT22;5747;56.748;13.882;2024-01-16T14:09:40;-10.30;99.90
11385;DHT22;5747;56.748;13.882;2024-01-16T14:12:11;-10.40;99.90
11385;DHT22;5747;56.748;13.882;2024-01-16T14:14:42;-10.50;99.90
11385;DHT22;5747;56.748;13.882;2024-01-16T14:17:10;-10.60;99.90
11385;DHT22;5747;56.748;13.882;2024-01-16T14:19:39;-10.70;99.90
11385;DHT22;5747;56.748;13.882;2024-01-16T14:22:07;-10.90;99.90
11385;DHT22;5747;56.748;13.882;2024-01-16T14:24:35;-11.00;99.90
11385;DHT22;5747;56.748;13.882;2024-01-16T14:27:05;-11.10;99.90
11385;DHT22;5747;56.748;13.882;2024-01-16T14:29:34;-11.30;99.90
11385;DHT22;5747;56.748;13.882;2024-01-16T14:32:06;-11.30;99.90
11385;DHT22;5747;56.748;13.882;2024-01-16T14:34:34;-11.20;99.90
11385;DHT22;5747;56.748;13.882;2024-01-16T14:37:03;-11.20;99.90
11385;DHT22;5747;56.748;13.882;2024-01-16T14:39:31;-11.20;99.90
11385;DHT22;5747;56.748;13.882;2024-01-16T14:42:01;-11.30;99.90
11385;DHT22;5747;56.748;13.882;2024-01-16T14:44:30;-11.40;99.90
11385;DHT22;5747;56.748;13.882;2024-01-16T14:46:58;-11.50;99.90
11385;DHT22;5747;56.748;13.882;2024-01-16T14:49:27;-11.40;99.90
11385;DHT22;5747;56.748;13.882;2024-01-16T14:51:59;-11.50;99.90
11385;DHT22;5747;56.748;13.882;2024-01-16T14:54:28;-11.70;99.90
11385;DHT22;5747;56.748;13.882;2024-01-16T14:56:56;-11.80;99.90
11385;DHT22;5747;56.748;13.882;2024-01-16T14:59:26;-11.80;99.90
11385;DHT22;5747;56.748;13.882;2024-01-16T15:01:54;-11.90;99.90
11385;DHT22;5747;56.748;13.882;2024-01-16T15:04:22;-12.10;99.90
11385;DHT22;5747;56.748;13.882;2024-01-16T15:06:52;-12.00;99.90
11385;DHT22;5747;56.748;13.882;2024-01-16T15:09:22;-12.20;99.90
11385;DHT22;5747;56.748;13.882;2024-01-16T15:11:50;-12.30;99.90
11385;DHT22;5747;56.748;13.882;2024-01-16T15:14:19;-12.30;99.90
11385;DHT22;5747;56.748;13.882;2024-01-16T15:16:48;-12.40;99.90
11385;DHT22;5747;56.748;13.882;2024-01-16T15:19:17;-12.50;99.90
11385;DHT22;5747;56.748;13.882;2024-01-16T15:21:45;-12.60;99.90
11385;DHT22;5747;56.748;13.882;2024-01-16T15:24:15;-12.70;99.90
11385;DHT22;5747;56.748;13.882;2024-01-16T15:26:48;-12.80;99.90
11385;DHT22;5747;56.748;13.882;2024-01-16T15:29:17;-13.10;99.90
11385;DHT22;5747;56.748;13.882;2024-01-16T15:31:45;-13.10;99.90
11385;DHT22;5747;56.748;13.882;2024-01-16T15:34:13;-13.10;99.90